Flag for Italy

Past Weather in 37°29'45.5"N, 15°05'45.4"E, Italy — Yesterday and Last 2 Weeks

Currently: 73 °F. Passing clouds. (Weather station: Catania / Fontanarossa, Italy). See more current weather

Past Weather in 37°29'45.5"N, 15°05'45.4"E — Graph

°F

37°29'45.5"N, 15°05'45.4"E Temperature Yesterday

Maximum temperature yesterday: 79 °F (at 11:20 am)
Minimum temperature yesterday: 64 °F (at 12:20 am)
Average temperature yesterday: 71 °F

High & Low Weather Summary for the Past Weeks

 TemperatureHumidityPressure
High82 °F (May 18, 12:50 pm)94% (May 16, 5:50 am)30.09 "Hg (May 16, 5:50 am)
Low55 °F (May 22, 6:20 am)34% (May 23, 3:50 pm)29.71 "Hg (May 16, 2:50 pm)
Average70 °F70%29.93 "Hg
* Reported May 15 4:20 pm — May 30 4:20 pm, 37°29'45.5"N, 15°05'45.4"E. Weather by CustomWeather, © 2024

Note: Actual official high and low records may vary slightly from our data, if they occured in-between our weather recording intervals... More about our weather records

37°29'45.5"N, 15°05'45.4"E Weather History for the Previous 24 Hours

Scroll right to see more
 ConditionsComfort  
Time TempWeatherWind HumidityBarometerVisibility
4:20 pm
Thu, May 30
75 °FPassing clouds.17 mph69%29.83 "HgN/A
3:50 pm73 °FPassing clouds.16 mph78%29.83 "HgN/A
2:50 pm73 °FPassing clouds.15 mph78%29.83 "HgN/A
1:50 pm75 °FPassing clouds.14 mph69%29.83 "HgN/A
1:20 pm75 °FPassing clouds.15 mph74%29.83 "HgN/A
12:50 pm73 °FPassing clouds.14 mph74%29.86 "HgN/A
12:20 pm73 °FScattered clouds.15 mph78%29.86 "HgN/A
11:50 am73 °FPassing clouds.15 mph74%29.86 "HgN/A
11:20 am73 °FPassing clouds.14 mph78%29.86 "HgN/A
10:20 am73 °FSunny.13 mph69%29.86 "Hg10 mi
9:50 am73 °FSunny.13 mph69%29.86 "Hg10 mi
9:20 am73 °FSunny.9 mph65%29.86 "Hg10 mi
8:50 am73 °FPassing clouds.8 mph61%29.86 "HgN/A
7:50 am70 °FScattered clouds.6 mph78%29.83 "HgN/A
6:50 am64 °FScattered clouds.6 mph88%29.83 "HgN/A
6:20 am63 °FPartly sunny.5 mph94%29.83 "Hg4 mi
5:50 am63 °FScattered clouds.3 mph88%29.83 "Hg4 mi
5:20 am59 °FPassing clouds.5 mph94%29.83 "HgN/A
4:50 am59 °FPassing clouds.5 mph94%29.83 "HgN/A
4:20 am61 °FClear.2 mph88%29.83 "Hg10 mi
3:20 am63 °FClear.5 mph83%29.83 "Hg10 mi
2:20 am63 °FClear.5 mph83%29.86 "Hg10 mi
1:50 am63 °FClear.2 mph88%29.86 "Hg10 mi
1:20 am66 °FClear.2 mph78%29.86 "Hg10 mi
12:50 am68 °FPassing clouds.5 mph78%29.86 "HgN/A
12:20 am70 °FClear.5 mph78%29.86 "Hg10 mi
11:50 pm
Wed, May 29
70 °FClear.6 mph78%29.86 "Hg10 mi
11:20 pm70 °FClear.9 mph83%29.86 "Hg10 mi
10:50 pm70 °FClear.9 mph83%29.89 "Hg10 mi
10:20 pm70 °FPassing clouds.12 mph83%29.89 "HgN/A
9:50 pm70 °FPassing clouds.13 mph83%29.89 "HgN/A
9:20 pm72 °FPassing clouds.13 mph78%29.86 "HgN/A
8:50 pm72 °FPassing clouds.13 mph78%29.86 "HgN/A
8:20 pm72 °FPassing clouds.13 mph78%29.86 "HgN/A
7:50 pm72 °FScattered clouds.15 mph78%29.86 "HgN/A
7:20 pm73 °FScattered clouds.15 mph74%29.86 "HgN/A
6:20 pm73 °FScattered clouds.15 mph74%29.86 "HgN/A
5:50 pm73 °FScattered clouds.14 mph69%29.86 "HgN/A
5:20 pm73 °FScattered clouds.13 mph74%29.86 "HgN/A
Weather by CustomWeather, © 2024

See weather overview